Time;durP1;ratioP1;P1;durP2;ratioP2;P2;SDS_P1;SDS_P2;PMS_P1;PMS_P2;Temp;Humidity;BMP_temperature;BMP_pressure;BME280_temperature;BME280_humidity;BME280_pressure;Samples;Min_cycle;Max_cycle;Signal;HPM_P1;HPM_P2
2022/03/20 00:00:33;;;;;;;34.58;20.67;;;4.20;74.90;;;;;;5092686;28;20141;-72
2022/03/20 00:03:02;;;;;;;35.00;20.58;;;4.20;75.20;;;;;;5092561;28;20471;-75
2022/03/20 00:05:28;;;;;;;36.05;21.52;;;4.30;75.20;;;;;;5092593;28;20531;-82
2022/03/20 00:07:54;;;;;;;36.63;21.77;;;4.20;75.00;;;;;;5092679;28;20384;-78
2022/03/20 00:10:19;;;;;;;33.72;20.92;;;4.20;75.00;;;;;;5092742;28;20024;-80
2022/03/20 00:12:45;;;;;;;33.97;20.77;;;4.30;74.80;;;;;;5092509;28;20032;-81
2022/03/20 00:15:11;;;;;;;36.03;20.63;;;4.30;74.30;;;;;;5092526;28;20560;-73
2022/03/20 00:17:36;;;;;;;35.78;20.65;;;4.40;74.10;;;;;;5092336;28;20048;-73
2022/03/20 00:20:04;;;;;;;30.88;19.48;;;4.40;73.80;;;;;;5092483;28;20073;-72
2022/03/20 00:22:31;;;;;;;33.80;20.85;;;4.40;73.60;;;;;;5092793;28;20028;-71
2022/03/20 00:24:57;;;;;;;33.80;20.55;;;4.50;73.30;;;;;;5092602;28;20380;-71
2022/03/20 00:27:23;;;;;;;32.25;19.73;;;4.50;73.10;;;;;;5100488;28;20060;-71
2022/03/20 00:29:50;;;;;;;30.33;18.50;;;4.50;73.30;;;;;;5096609;28;20169;-71
2022/03/20 00:32:16;;;;;;;36.15;19.42;;;4.50;73.20;;;;;;5096271;28;20047;-71
2022/03/20 00:34:42;;;;;;;31.48;19.42;;;4.50;73.20;;;;;;5095971;28;20164;-71
2022/03/20 00:37:08;;;;;;;33.65;20.77;;;4.40;73.20;;;;;;5095982;28;20047;-71
2022/03/20 00:39:35;;;;;;;31.10;19.17;;;4.50;73.40;;;;;;5095918;28;20052;-71
2022/03/20 00:42:00;;;;;;;34.92;20.42;;;4.50;73.40;;;;;;5095819;28;20032;-72
2022/03/20 00:44:27;;;;;;;33.97;19.77;;;4.40;73.30;;;;;;5095686;28;20032;-72
2022/03/20 00:46:53;;;;;;;36.25;21.05;;;4.50;73.60;;;;;;5095704;28;20040;-71
2022/03/20 00:49:18;;;;;;;31.55;19.70;;;4.40;73.40;;;;;;5095714;28;20036;-71
2022/03/20 00:51:44;;;;;;;34.75;21.52;;;4.40;73.50;;;;;;5095595;28;20032;-71
2022/03/20 00:54:10;;;;;;;37.47;20.83;;;4.20;74.20;;;;;;5095420;28;20464;-72
2022/03/20 00:56:37;;;;;;;33.72;20.70;;;4.20;74.10;;;;;;5095333;28;20388;-71
2022/03/20 00:59:03;;;;;;;32.30;19.17;;;4.10;74.10;;;;;;5095515;28;20012;-72
2022/03/20 01:01:29;;;;;;;33.85;20.40;;;4.10;73.90;;;;;;5095711;28;20035;-80
2022/03/20 01:03:56;;;;;;;38.05;20.30;;;4.10;73.60;;;;;;5095199;28;20021;-71
2022/03/20 01:06:22;;;;;;;46.85;22.67;;;4.00;73.70;;;;;;5095226;28;20032;-71
2022/03/20 01:08:55;;;;;;;43.00;23.73;;;4.00;73.90;;;;;;5096293;28;20020;-71
2022/03/20 01:11:21;;;;;;;38.92;22.98;;;3.80;75.10;;;;;;5097842;28;20457;-72
2022/03/20 01:13:46;;;;;;;36.70;22.15;;;3.70;75.30;;;;;;5096043;28;20020;-71
2022/03/20 01:16:12;;;;;;;33.33;21.05;;;3.70;75.50;;;;;;5094877;28;20024;-82
2022/03/20 01:18:39;;;;;;;31.35;20.00;;;3.70;75.50;;;;;;5094163;28;20139;-72
2022/03/20 01:21:05;;;;;;;35.55;20.98;;;3.80;75.30;;;;;;5094914;28;20117;-71
2022/03/20 01:23:30;;;;;;;32.30;19.80;;;3.80;74.80;;;;;;5094959;28;20016;-71
2022/03/20 01:25:56;;;;;;;33.13;20.65;;;3.80;74.50;;;;;;5094825;28;20065;-81
2022/03/20 01:28:23;;;;;;;34.13;20.13;;;3.90;74.10;;;;;;5095014;28;20432;-71
2022/03/20 01:30:49;;;;;;;33.92;20.63;;;3.90;73.90;;;;;;5094803;28;20032;-71
2022/03/20 01:33:16;;;;;;;36.58;21.73;;;3.90;73.90;;;;;;5094582;28;20020;-71
2022/03/20 01:35:41;;;;;;;33.53;21.00;;;3.90;73.60;;;;;;5094698;28;20468;-71
2022/03/20 01:38:07;;;;;;;35.28;20.13;;;3.80;73.20;;;;;;5094762;28;20031;-80
2022/03/20 01:40:34;;;;;;;30.48;20.33;;;3.80;72.60;;;;;;5098751;28;20020;-80
2022/03/20 01:43:01;;;;;;;34.08;21.80;;;3.80;72.60;;;;;;5108216;28;20062;-73
2022/03/20 01:45:27;;;;;;;35.80;21.02;;;3.50;73.60;;;;;;5098680;28;20039;-71
2022/03/20 01:47:53;;;;;;;36.45;20.98;;;3.50;73.50;;;;;;5095827;28;20029;-71
2022/03/20 01:50:27;;;;;;;32.97;19.77;;;3.40;73.20;;;;;;5102410;28;20069;-72
2022/03/20 01:52:54;;;;;;;32.85;20.48;;;3.50;73.10;;;;;;5094562;28;20020;-70
2022/03/20 01:55:24;;;;;;;37.22;20.23;;;3.50;73.00;;;;;;5094509;28;20100;-82
2022/03/20 01:57:49;;;;;;;31.50;20.38;;;3.50;72.90;;;;;;5094300;28;20364;-72
2022/03/20 02:00:18;;;;;;;30.45;19.05;;;3.60;72.50;;;;;;5094420;28;20099;-71
2022/03/20 02:02:44;;;;;;;32.70;20.27;;;3.60;72.40;;;;;;5094235;28;20548;-70
2022/03/20 02:05:11;;;;;;;33.05;20.75;;;3.60;72.40;;;;;;5096606;28;20028;-71
2022/03/20 02:07:38;;;;;;;34.03;20.38;;;3.60;72.20;;;;;;5094107;28;20032;-71
2022/03/20 02:10:05;;;;;;;35.95;21.85;;;3.60;72.10;;;;;;5094207;28;20021;-72
2022/03/20 02:12:31;;;;;;;38.35;23.08;;;3.70;72.00;;;;;;5094026;28;20124;-72
2022/03/20 02:15:00;;;;;;;39.80;24.25;;;3.60;72.30;;;;;;5093880;28;20484;-72
2022/03/20 02:17:28;;;;;;;41.42;23.42;;;3.40;72.70;;;;;;5093776;28;20044;-72
2022/03/20 02:19:57;;;;;;;34.13;22.23;;;3.40;72.90;;;;;;5092757;28;20024;-71
2022/03/20 02:22:24;;;;;;;33.45;21.77;;;3.30;73.10;;;;;;5093814;28;20024;-71
2022/03/20 02:24:51;;;;;;;37.33;22.00;;;3.40;73.20;;;;;;5093642;28;20016;-72
2022/03/20 02:27:25;;;;;;;37.13;22.60;;;3.40;73.10;;;;;;5094011;28;20067;-82
2022/03/20 02:29:55;;;;;;;37.88;21.88;;;3.40;72.90;;;;;;5093710;28;20024;-72
2022/03/20 02:32:23;;;;;;;41.08;23.60;;;3.40;72.50;;;;;;5093617;28;20074;-72
2022/03/20 02:34:50;;;;;;;39.67;23.17;;;3.40;72.30;;;;;;5093659;28;20049;-72
2022/03/20 02:37:21;;;;;;;34.88;22.27;;;3.40;72.30;;;;;;5093286;28;20036;-80
2022/03/20 02:39:47;;;;;;;36.47;22.98;;;3.40;72.50;;;;;;5093720;28;20024;-83
2022/03/20 02:42:15;;;;;;;39.90;21.52;;;3.40;72.60;;;;;;5093379;28;20467;-71
2022/03/20 02:45:03;;;;;;;36.90;22.88;;;3.50;72.40;;;;;;5093493;28;20050;-81
2022/03/20 02:47:38;;;;;;;35.03;22.52;;;3.50;72.20;;;;;;5093748;28;20054;-82
2022/03/20 02:50:11;;;;;;;37.88;22.65;;;3.40;71.90;;;;;;5092945;28;20012;-81
2022/03/20 02:52:47;;;;;;;40.47;22.60;;;3.40;71.80;;;;;;5093525;28;20526;-82
2022/03/20 02:55:14;;;;;;;37.75;23.02;;;3.40;71.90;;;;;;5093389;28;20039;-82
2022/03/20 02:57:40;;;;;;;37.78;22.63;;;3.40;71.70;;;;;;5093435;28;20480;-82
2022/03/20 03:00:07;;;;;;;36.45;23.15;;;3.30;71.50;;;;;;5093229;28;20031;-78
2022/03/20 03:02:39;;;;;;;43.00;24.75;;;3.30;72.20;;;;;;5093455;28;20024;-81
2022/03/20 03:05:05;;;;;;;38.75;23.05;;;3.30;70.30;;;;;;5093230;28;20020;-82
2022/03/20 03:10:55;;;;;;;39.33;23.35;;;3.40;69.10;;;;;;5093219;28;20032;-82
2022/03/20 03:13:03;;;;;;;43.35;23.88;;;3.60;66.60;;;;;;5092925;28;20039;-72
2022/03/20 03:15:28;;;;;;;44.05;26.02;;;3.80;66.40;;;;;;5093229;28;20420;-82
2022/03/20 03:17:56;;;;;;;44.35;25.92;;;3.80;64.20;;;;;;5092777;28;20051;-74
2022/03/20 03:20:21;;;;;;;42.65;25.25;;;4.00;63.00;;;;;;5095175;28;20077;-81
2022/03/20 03:22:47;;;;;;;42.55;25.50;;;4.10;61.60;;;;;;5092901;28;20020;-83
2022/03/20 03:25:12;;;;;;;44.80;25.67;;;4.20;61.10;;;;;;5092828;28;20055;-81
2022/03/20 03:27:38;;;;;;;42.78;25.40;;;4.20;60.20;;;;;;5092812;28;20457;-80
2022/03/20 03:30:04;;;;;;;45.70;26.52;;;4.30;59.50;;;;;;5092806;28;20050;-81
2022/03/20 03:32:31;;;;;;;42.53;26.13;;;4.30;59.50;;;;;;5092795;28;20021;-80
2022/03/20 03:37:40;;;;;;;44.35;26.65;;;4.30;59.70;;;;;;5092819;28;20093;-81
2022/03/20 03:40:07;;;;;;;48.58;28.02;;;4.30;59.30;;;;;;5092793;28;20028;-80
2022/03/20 03:42:34;;;;;;;52.33;28.83;;;4.30;59.20;;;;;;5092827;28;20025;-81
2022/03/20 03:45:01;;;;;;;45.90;28.10;;;4.30;58.60;;;;;;5092766;28;20384;-81
2022/03/20 03:47:28;;;;;;;50.88;29.13;;;4.30;59.00;;;;;;5092600;28;20064;-81
2022/03/20 03:49:54;;;;;;;47.53;28.23;;;4.40;58.40;;;;;;5092682;28;20502;-81
2022/03/20 03:52:20;;;;;;;49.58;28.65;;;4.40;57.50;;;;;;5092788;28;20032;-81
2022/03/20 03:54:46;;;;;;;49.58;27.60;;;4.40;57.50;;;;;;5092699;28;20024;-81
2022/03/20 03:57:12;;;;;;;48.83;27.92;;;4.30;57.70;;;;;;5092753;28;20024;-81
2022/03/20 03:59:38;;;;;;;48.10;27.67;;;4.40;57.80;;;;;;5092742;28;20035;-81
2022/03/20 04:02:04;;;;;;;44.45;27.60;;;4.40;58.00;;;;;;5096219;28;20059;-82
2022/03/20 04:04:30;;;;;;;44.63;27.00;;;4.40;58.20;;;;;;5096495;28;20028;-82
2022/03/20 04:06:56;;;;;;;46.80;28.85;;;4.50;58.40;;;;;;5096399;28;20044;-81
2022/03/20 04:09:22;;;;;;;53.92;28.88;;;4.50;58.10;;;;;;5096430;28;20023;-81
2022/03/20 04:11:48;;;;;;;51.53;30.05;;;4.60;58.00;;;;;;5096386;28;20541;-82
2022/03/20 04:14:14;;;;;;;46.95;28.60;;;4.60;58.00;;;;;;5096292;28;20123;-81
2022/03/20 04:16:39;;;;;;;50.45;29.80;;;4.60;58.30;;;;;;5096221;28;20067;-71
2022/03/20 04:19:05;;;;;;;46.17;27.77;;;4.70;58.00;;;;;;5096263;28;20123;-71
2022/03/20 04:21:31;;;;;;;51.70;29.00;;;4.80;58.00;;;;;;5096003;28;20476;-71
2022/03/20 04:23:56;;;;;;;48.75;27.60;;;4.90;57.90;;;;;;5096037;28;20032;-72
2022/03/20 04:26:23;;;;;;;45.53;28.05;;;5.00;57.70;;;;;;5095960;28;20028;-71
2022/03/20 04:28:51;;;;;;;46.30;27.50;;;5.00;56.40;;;;;;5096007;28;20027;-71
2022/03/20 04:31:17;;;;;;;48.45;27.75;;;5.10;56.00;;;;;;5095742;28;20441;-73
2022/03/20 04:33:45;;;;;;;45.22;26.48;;;5.10;56.40;;;;;;5096039;28;20504;-72
2022/03/20 04:36:11;;;;;;;47.53;29.25;;;5.20;56.40;;;;;;5096008;28;20021;-73
2022/03/20 04:38:37;;;;;;;45.17;27.42;;;5.20;56.30;;;;;;5096329;28;20032;-71
2022/03/20 04:41:04;;;;;;;47.10;29.55;;;5.20;56.30;;;;;;5095800;28;20101;-71
2022/03/20 04:43:29;;;;;;;50.03;27.45;;;5.20;56.50;;;;;;5095709;28;20031;-71
2022/03/20 04:45:55;;;;;;;43.25;26.67;;;5.30;56.70;;;;;;5094912;28;20448;-74
2022/03/20 04:59:19;;;;;;;49.75;29.85;;;5.30;57.10;;;;;;5095480;28;20051;-71
2022/03/20 05:01:44;;;;;;;46.08;28.77;;;5.30;57.10;;;;;;5095379;28;20465;-72
2022/03/20 05:04:11;;;;;;;46.97;28.35;;;5.30;57.40;;;;;;5095382;28;20032;-72
2022/03/20 05:06:36;;;;;;;50.17;29.75;;;5.30;57.50;;;;;;5095211;28;20032;-73
2022/03/20 05:14:41;;;;;;;46.93;28.63;;;5.30;59.20;;;;;;5095432;28;20063;-79
2022/03/20 05:17:08;;;;;;;45.40;28.05;;;5.20;60.70;;;;;;5100851;28;20036;-79
2022/03/20 05:19:38;;;;;;;49.63;28.63;;;5.10;62.60;;;;;;5105115;28;20020;-78
2022/03/20 05:22:05;;;;;;;40.17;26.48;;;5.00;63.20;;;;;;5102216;28;20465;-80
2022/03/20 05:24:33;;;;;;;49.47;29.88;;;5.00;63.80;;;;;;5095007;28;20028;-81
2022/03/20 05:26:59;;;;;;;54.40;30.80;;;5.00;62.60;;;;;;5095139;28;20028;-80
2022/03/20 05:29:24;;;;;;;51.67;30.70;;;5.10;60.60;;;;;;5094942;28;20522;-81
2022/03/20 05:31:50;;;;;;;48.03;29.98;;;5.10;59.20;;;;;;5094810;28;20037;-78
2022/03/20 05:34:17;;;;;;;53.33;29.70;;;5.20;59.90;;;;;;5094863;28;20068;-77
2022/03/20 05:36:43;;;;;;;57.38;31.10;;;5.20;58.40;;;;;;5094868;28;20073;-78
2022/03/20 05:39:09;;;;;;;48.67;29.48;;;5.30;57.80;;;;;;5094759;28;20020;-79
2022/03/20 05:41:46;;;;;;;49.97;30.05;;;5.30;57.30;;;;;;5094713;28;20028;-79
2022/03/20 05:44:22;;;;;;;52.72;31.30;;;5.30;57.10;;;;;;5094725;28;20016;-80
2022/03/20 05:46:49;;;;;;;54.85;31.55;;;5.30;57.00;;;;;;5093237;28;20373;-80
2022/03/20 05:49:19;;;;;;;54.90;30.38;;;5.30;56.80;;;;;;5094561;28;20028;-77
2022/03/20 05:51:46;;;;;;;51.70;30.98;;;5.20;56.90;;;;;;5094321;28;20020;-80
2022/03/20 05:54:12;;;;;;;55.10;31.08;;;5.20;57.20;;;;;;5094222;28;20099;-80
2022/03/20 05:59:22;;;;;;;48.53;29.58;;;5.20;57.00;;;;;;5094721;28;20030;-81
2022/03/20 06:01:50;;;;;;;47.58;28.65;;;5.30;57.00;;;;;;5094267;28;20383;-75
2022/03/20 06:04:16;;;;;;;51.10;31.08;;;5.30;56.60;;;;;;5094296;28;20016;-74
2022/03/20 06:06:43;;;;;;;55.13;31.88;;;5.40;56.40;;;;;;5094188;28;20039;-80
2022/03/20 06:09:08;;;;;;;50.15;30.23;;;5.30;56.00;;;;;;5094227;28;20490;-80
2022/03/20 06:11:34;;;;;;;50.63;30.50;;;5.30;55.80;;;;;;5094133;28;20063;-80
2022/03/20 06:14:01;;;;;;;52.83;31.33;;;5.30;55.70;;;;;;5093922;28;20095;-82
2022/03/20 06:16:28;;;;;;;52.35;29.35;;;5.30;55.40;;;;;;5093938;28;20036;-82
2022/03/20 06:18:54;;;;;;;49.92;29.45;;;5.10;55.10;;;;;;5094071;28;20024;-80
2022/03/20 06:21:19;;;;;;;53.53;30.00;;;5.10;55.20;;;;;;5094118;28;20024;-81
2022/03/20 06:23:45;;;;;;;52.45;28.45;;;5.00;55.00;;;;;;5093271;28;20204;-80
2022/03/20 06:26:11;;;;;;;52.40;28.88;;;5.10;55.00;;;;;;5093804;28;20552;-78
2022/03/20 06:28:40;;;;;;;47.13;28.15;;;5.10;54.90;;;;;;5093761;28;20410;-80
2022/03/20 06:31:12;;;;;;;55.28;29.98;;;5.20;54.80;;;;;;5093658;28;20046;-76
2022/03/20 06:33:39;;;;;;;52.92;29.38;;;5.30;54.90;;;;;;5093722;28;20069;-78
2022/03/20 06:36:06;;;;;;;49.10;29.33;;;5.30;54.60;;;;;;5093375;28;20017;-73
2022/03/20 06:38:33;;;;;;;51.78;30.15;;;5.30;54.80;;;;;;5092437;28;20032;-79
2022/03/20 06:41:00;;;;;;;47.38;28.38;;;5.40;54.90;;;;;;5092778;28;20112;-79
2022/03/20 06:43:25;;;;;;;46.00;28.92;;;5.60;54.70;;;;;;5092631;28;20024;-79
2022/03/20 06:45:53;;;;;;;48.55;28.45;;;5.70;54.10;;;;;;5093359;28;20073;-79
2022/03/20 06:48:18;;;;;;;45.55;27.50;;;5.90;53.30;;;;;;5093387;28;20055;-81
2022/03/20 06:50:44;;;;;;;47.47;29.42;;;6.00;52.70;;;;;;5093550;28;20024;-80
2022/03/20 06:53:11;;;;;;;45.90;28.40;;;6.10;51.50;;;;;;5093467;28;20024;-78
2022/03/20 06:55:37;;;;;;;46.55;26.35;;;6.30;50.70;;;;;;5093389;28;20035;-81
2022/03/20 06:58:03;;;;;;;46.13;27.77;;;6.50;50.70;;;;;;5093297;28;20020;-80
2022/03/20 07:00:29;;;;;;;45.47;27.60;;;6.60;50.60;;;;;;5093436;28;20028;-79
2022/03/20 07:02:56;;;;;;;49.03;27.63;;;6.80;50.40;;;;;;5092153;28;20111;-78
2022/03/20 07:05:22;;;;;;;38.90;25.65;;;6.90;49.40;;;;;;5093340;28;20024;-79
2022/03/20 07:07:48;;;;;;;47.13;27.35;;;7.10;48.40;;;;;;5093226;28;20550;-81
2022/03/20 07:10:14;;;;;;;41.97;26.10;;;7.20;47.50;;;;;;5093222;28;20380;-79
2022/03/20 07:12:40;;;;;;;42.92;26.08;;;7.30;47.10;;;;;;5093086;28;20035;-81
2022/03/20 07:15:06;;;;;;;42.92;26.80;;;7.50;46.70;;;;;;5093100;28;20056;-76
2022/03/20 07:17:37;;;;;;;43.85;28.08;;;7.50;46.20;;;;;;5092977;28;20396;-80
2022/03/20 07:20:06;;;;;;;41.38;27.00;;;7.60;46.40;;;;;;5093224;28;20024;-79
2022/03/20 07:22:32;;;;;;;40.13;25.13;;;7.70;46.30;;;;;;5093127;28;20429;-80
2022/03/20 07:29:29;;;;;;;41.15;25.30;;;7.70;45.40;;;;;;5092909;28;20024;-77
2022/03/20 07:30:27;;;;;;;45.28;25.25;;;7.90;44.70;;;;;;5093233;28;20051;-78
2022/03/20 07:32:52;;;;;;;39.53;25.20;;;8.00;44.10;;;;;;5093018;28;20024;-79
2022/03/20 07:35:18;;;;;;;38.13;22.63;;;8.10;43.70;;;;;;5095087;28;20468;-79
2022/03/20 07:37:43;;;;;;;37.17;22.98;;;8.20;42.60;;;;;;5097201;28;20074;-77
2022/03/20 07:40:09;;;;;;;31.73;19.00;;;8.40;40.80;;;;;;5097116;28;20077;-77
2022/03/20 07:42:35;;;;;;;26.15;16.45;;;8.60;39.70;;;;;;5097174;28;20043;-77
2022/03/20 07:45:01;;;;;;;28.92;17.17;;;8.90;37.00;;;;;;5096732;28;20507;-76
2022/03/20 07:47:26;;;;;;;27.45;16.42;;;9.10;35.50;;;;;;5096915;28;20438;-78
2022/03/20 07:49:53;;;;;;;29.52;17.60;;;9.40;34.40;;;;;;5097066;28;20455;-75
2022/03/20 07:52:19;;;;;;;26.02;16.15;;;9.60;34.40;;;;;;5096770;28;20082;-78
2022/03/20 07:54:45;;;;;;;32.00;17.15;;;9.70;33.50;;;;;;5095470;28;20024;-73
2022/03/20 07:57:11;;;;;;;25.80;15.82;;;9.90;32.80;;;;;;5096831;28;20027;-74
2022/03/20 07:59:37;;;;;;;26.63;16.35;;;10.00;32.60;;;;;;5096784;28;20028;-73
2022/03/20 08:02:03;;;;;;;26.05;16.52;;;10.10;31.90;;;;;;5096734;28;20044;-73
2022/03/20 08:04:28;;;;;;;25.90;15.35;;;10.20;31.10;;;;;;5096775;28;20012;-76
2022/03/20 08:06:54;;;;;;;22.80;14.75;;;10.40;30.60;;;;;;5096790;28;20418;-76
2022/03/20 08:09:19;;;;;;;25.67;14.68;;;10.40;30.40;;;;;;5096722;28;20020;-70
2022/03/20 08:11:45;;;;;;;21.65;15.10;;;10.60;31.60;;;;;;5096652;28;20035;-74
2022/03/20 08:14:10;;;;;;;24.50;14.63;;;10.70;31.50;;;;;;5096601;28;20051;-71
2022/03/20 08:16:38;;;;;;;24.30;16.23;;;10.90;32.20;;;;;;5096467;28;20048;-73
2022/03/20 08:19:05;;;;;;;25.75;16.55;;;10.90;30.50;;;;;;5096467;28;20034;-74
2022/03/20 08:21:33;;;;;;;25.92;16.55;;;11.10;30.30;;;;;;5096480;28;20027;-72
2022/03/20 08:24:02;;;;;;;25.88;15.35;;;11.10;29.30;;;;;;5094902;28;20021;-74
2022/03/20 08:26:29;;;;;;;23.42;14.25;;;11.00;29.50;;;;;;5095163;28;20034;-73
2022/03/20 08:28:55;;;;;;;26.85;15.32;;;11.20;29.90;;;;;;5095098;28;20024;-75
2022/03/20 08:31:21;;;;;;;23.30;14.93;;;11.20;29.10;;;;;;5094519;28;20021;-75
2022/03/20 08:33:46;;;;;;;26.85;14.60;;;11.40;30.30;;;;;;5095076;28;20024;-76
2022/03/20 08:36:12;;;;;;;22.73;14.45;;;11.60;29.20;;;;;;5095672;28;20047;-74
2022/03/20 08:38:39;;;;;;;23.38;14.75;;;11.50;27.70;;;;;;5094753;28;20021;-74
2022/03/20 08:41:05;;;;;;;21.58;14.35;;;11.40;27.60;;;;;;5095836;28;20031;-72
2022/03/20 08:43:31;;;;;;;23.25;14.40;;;11.50;27.60;;;;;;5094364;28;20020;-73
2022/03/20 08:45:56;;;;;;;20.48;13.45;;;11.60;27.60;;;;;;5094159;28;20043;-75
2022/03/20 08:48:22;;;;;;;25.00;14.02;;;11.60;26.80;;;;;;5094139;28;20051;-77
2022/03/20 08:50:48;;;;;;;18.92;13.23;;;11.70;26.60;;;;;;5095641;28;20103;-74
2022/03/20 08:53:17;;;;;;;22.45;13.95;;;11.80;26.30;;;;;;5095745;28;20016;-75
2022/03/20 08:55:42;;;;;;;18.35;12.70;;;11.50;25.70;;;;;;5094386;28;20020;-74
2022/03/20 08:58:09;;;;;;;21.63;12.18;;;11.50;25.60;;;;;;5094584;28;20031;-75
2022/03/20 09:00:34;;;;;;;20.58;12.13;;;11.40;25.90;;;;;;5094399;28;20020;-76
2022/03/20 09:03:00;;;;;;;21.63;12.40;;;11.40;25.90;;;;;;5094249;28;20034;-77
2022/03/20 09:05:26;;;;;;;18.42;12.43;;;11.50;25.80;;;;;;5095487;28;20066;-76
2022/03/20 09:07:53;;;;;;;18.80;11.82;;;11.50;25.70;;;;;;5094231;28;20457;-75
2022/03/20 09:10:19;;;;;;;25.02;13.13;;;11.60;25.80;;;;;;5094093;28;20036;-76
2022/03/20 09:12:45;;;;;;;21.35;12.82;;;11.70;25.50;;;;;;5093958;28;20032;-77
2022/03/20 09:15:13;;;;;;;20.77;13.00;;;11.70;25.70;;;;;;5095281;28;20024;-76
2022/03/20 09:20:28;;;;;;;20.60;13.02;;;11.50;26.50;;;;;;5095477;28;20027;-80
2022/03/20 09:22:54;;;;;;;23.05;13.10;;;11.60;26.90;;;;;;5095084;28;20095;-80
2022/03/20 09:25:19;;;;;;;19.08;12.85;;;11.70;27.30;;;;;;5095146;28;20099;-81
2022/03/20 09:27:48;;;;;;;20.55;12.57;;;11.70;27.20;;;;;;5095239;28;20480;-82
2022/03/20 09:30:14;;;;;;;21.42;12.90;;;11.70;27.40;;;;;;5096561;28;20016;-85
2022/03/20 09:32:40;;;;;;;19.98;13.50;;;11.80;28.20;;;;;;5095602;28;20029;-82
2022/03/20 09:35:06;;;;;;;21.35;12.20;;;11.90;27.40;;;;;;5095430;28;20038;-86
2022/03/20 09:37:32;;;;;;;21.85;12.80;;;12.00;27.00;;;;;;5095474;28;20031;-83
2022/03/20 09:39:57;;;;;;;22.00;12.68;;;12.20;27.00;;;;;;5096692;28;20032;-86
2022/03/20 09:42:23;;;;;;;18.02;12.27;;;12.40;27.60;;;;;;5096959;28;20047;-87
2022/03/20 09:44:50;;;;;;;18.35;12.23;;;12.60;26.90;;;;;;5116821;28;20096;-84
2022/03/20 09:47:19;;;;;;;21.02;13.88;;;12.80;26.90;;;;;;5101019;28;20036;-81
2022/03/20 09:49:48;;;;;;;18.25;12.38;;;13.00;26.50;;;;;;5097579;28;20020;-87
2022/03/20 09:52:16;;;;;;;21.67;13.32;;;13.40;25.90;;;;;;5100644;28;20079;-86
2022/03/20 09:54:42;;;;;;;23.42;15.63;;;13.80;26.10;;;;;;5111893;28;20024;-78
2022/03/20 09:57:09;;;;;;;27.65;16.63;;;14.10;27.00;;;;;;5112483;28;20468;-86
2022/03/20 09:59:37;;;;;;;28.92;15.70;;;14.40;27.40;;;;;;5096473;28;20104;-84
2022/03/20 10:02:04;;;;;;;23.02;15.98;;;14.50;27.60;;;;;;5095830;28;20097;-85
2022/03/20 10:04:31;;;;;;;23.15;15.73;;;14.70;27.80;;;;;;5095925;28;20024;-84
2022/03/20 10:06:58;;;;;;;22.67;15.60;;;15.00;27.90;;;;;;5096077;28;20598;-87
2022/03/20 10:09:24;;;;;;;28.10;18.05;;;15.20;27.10;;;;;;5096077;28;20024;-87
2022/03/20 10:11:54;;;;;;;24.27;16.42;;;15.30;26.80;;;;;;5097415;28;20032;-86
2022/03/20 10:14:30;;;;;;;23.67;14.55;;;15.60;26.20;;;;;;5096352;28;20471;-87
2022/03/20 10:17:17;;;;;;;25.50;14.38;;;15.90;25.50;;;;;;5096726;28;20036;-86
2022/03/20 10:19:43;;;;;;;22.13;14.68;;;16.20;25.20;;;;;;5095911;28;20020;-86
2022/03/20 10:22:11;;;;;;;20.17;15.43;;;16.50;24.00;;;;;;5096333;28;20028;-79
2022/03/20 10:24:38;;;;;;;26.05;16.33;;;16.80;23.50;;;;;;5095881;28;20024;-86
2022/03/20 10:27:07;;;;;;;21.10;15.20;;;16.70;22.90;;;;;;5095214;28;20038;-85
2022/03/20 10:29:35;;;;;;;19.95;14.63;;;16.70;21.90;;;;;;5094559;28;20048;-84
2022/03/20 10:32:11;;;;;;;18.55;13.50;;;16.70;23.00;;;;;;5094512;28;20054;-86
2022/03/20 10:34:51;;;;;;;22.20;13.55;;;17.10;23.00;;;;;;5094387;28;20031;-82
2022/03/20 10:37:19;;;;;;;23.55;14.27;;;17.50;22.70;;;;;;5094701;28;20020;-85
2022/03/20 10:39:45;;;;;;;23.35;14.65;;;17.50;21.70;;;;;;5095370;28;20452;-86
2022/03/20 10:42:13;;;;;;;21.05;14.35;;;17.30;21.80;;;;;;5096233;28;20632;-87
2022/03/20 10:44:39;;;;;;;18.83;13.27;;;17.00;20.80;;;;;;5094881;28;20020;-83
2022/03/20 10:47:12;;;;;;;18.42;11.77;;;17.20;21.10;;;;;;5094911;28;20043;-85
2022/03/20 10:49:41;;;;;;;18.92;11.52;;;17.40;19.80;;;;;;5095039;28;20020;-86
2022/03/20 10:52:12;;;;;;;18.38;11.50;;;17.30;19.30;;;;;;5094829;28;20399;-78
2022/03/20 10:54:46;;;;;;;16.55;11.57;;;17.10;18.90;;;;;;5093304;28;20055;-83
2022/03/20 10:57:13;;;;;;;17.88;12.02;;;17.10;18.60;;;;;;5094377;28;20028;-81
2022/03/20 10:59:41;;;;;;;20.50;12.55;;;17.20;18.80;;;;;;5097905;28;20022;-87
2022/03/20 11:02:23;;;;;;;15.10;11.00;;;17.30;18.80;;;;;;5096721;28;20032;-84
2022/03/20 11:04:49;;;;;;;15.02;11.32;;;17.40;19.30;;;;;;5096467;28;20016;-81
2022/03/20 11:07:19;;;;;;;21.60;12.15;;;17.90;20.40;;;;;;5096290;28;20036;-87
2022/03/20 11:09:52;;;;;;;17.60;11.48;;;18.30;20.10;;;;;;5095376;28;20016;-85
2022/03/20 11:12:27;;;;;;;15.57;11.88;;;18.50;19.30;;;;;;5095838;28;20020;-83
2022/03/20 11:14:57;;;;;;;16.38;11.85;;;18.70;18.80;;;;;;5094998;28;20150;-84
2022/03/20 11:17:31;;;;;;;18.40;12.73;;;18.70;18.10;;;;;;5094521;28;20051;-82
2022/03/20 11:19:57;;;;;;;17.92;11.90;;;18.40;17.30;;;;;;5094638;28;20028;-86
2022/03/20 11:22:24;;;;;;;19.33;11.88;;;18.20;17.30;;;;;;5094154;28;20085;-81
2022/03/20 11:24:55;;;;;;;19.67;11.50;;;18.20;17.80;;;;;;5093837;28;20099;-84
2022/03/20 11:27:28;;;;;;;21.20;11.30;;;18.20;17.70;;;;;;5094264;28;20043;-82
2022/03/20 11:30:06;;;;;;;21.60;10.98;;;18.50;18.10;;;;;;5093946;28;20013;-77
2022/03/20 11:32:33;;;;;;;15.10;9.98;;;18.50;17.80;;;;;;5093267;28;20024;-73
2022/03/20 11:34:59;;;;;;;16.80;10.75;;;18.60;17.90;;;;;;5093506;28;20043;-79
2022/03/20 11:37:43;;;;;;;16.52;10.60;;;18.70;17.90;;;;;;5092932;28;20399;-78
2022/03/20 11:40:20;;;;;;;17.88;9.93;;;19.10;18.70;;;;;;5091681;28;20043;-76
2022/03/20 11:42:47;;;;;;;17.05;10.73;;;19.30;17.90;;;;;;5091989;28;20437;-77
2022/03/20 11:45:17;;;;;;;17.42;10.88;;;18.90;17.80;;;;;;5091652;28;20021;-77
2022/03/20 11:47:45;;;;;;;15.60;10.40;;;19.10;17.80;;;;;;5091962;28;20040;-74
2022/03/20 11:50:25;;;;;;;16.42;10.23;;;19.10;18.00;;;;;;5091592;28;20035;-77
2022/03/20 11:52:55;;;;;;;21.67;10.57;;;19.40;17.70;;;;;;5091754;28;20056;-75
2022/03/20 11:55:25;;;;;;;15.02;10.30;;;19.50;17.90;;;;;;5108502;28;20104;-76
2022/03/20 11:57:51;;;;;;;15.82;10.18;;;20.00;17.90;;;;;;5108496;28;20454;-73
2022/03/20 12:00:21;;;;;;;13.27;9.40;;;20.40;17.70;;;;;;5092545;28;20034;-75
2022/03/20 12:03:02;;;;;;;16.27;9.57;;;20.70;16.90;;;;;;5091790;28;20032;-76
2022/03/20 12:05:39;;;;;;;15.07;10.07;;;21.00;16.40;;;;;;5094804;28;20027;-77
2022/03/20 12:08:28;;;;;;;15.15;8.98;;;21.50;16.50;;;;;;5096958;28;20021;-81
2022/03/20 12:11:23;;;;;;;18.40;8.80;;;21.70;16.00;;;;;;5096868;28;20024;-76
2022/03/20 12:13:56;;;;;;;16.53;10.13;;;22.00;15.10;;;;;;5098835;28;20380;-77
2022/03/20 12:16:45;;;;;;;14.30;10.13;;;21.70;14.10;;;;;;5094270;28;20295;-78
2022/03/20 12:19:13;;;;;;;14.88;10.23;;;21.20;14.90;;;;;;5087757;28;20036;-79
2022/03/20 12:22:15;;;;;;;13.77;9.43;;;21.00;15.40;;;;;;5093476;28;20051;-78
2022/03/20 12:24:45;;;;;;;15.00;9.02;;;21.20;16.00;;;;;;5092699;28;20067;-75
2022/03/20 12:27:22;;;;;;;22.58;9.57;;;21.30;15.90;;;;;;5096340;28;20058;-77
2022/03/20 12:29:48;;;;;;;12.93;8.60;;;21.00;15.60;;;;;;5096007;28;20031;-76
2022/03/20 12:32:15;;;;;;;13.88;8.73;;;21.00;16.40;;;;;;5096163;28;20384;-76
2022/03/20 12:34:45;;;;;;;13.55;9.13;;;21.20;16.40;;;;;;5096676;28;20032;-78
2022/03/20 12:37:32;;;;;;;12.82;8.23;;;21.10;16.40;;;;;;5096977;28;20040;-78
2022/03/20 12:40:20;;;;;;;13.23;8.63;;;21.10;16.80;;;;;;5098556;28;20016;-78
2022/03/20 12:42:56;;;;;;;18.60;8.73;;;20.90;16.50;;;;;;5098530;28;20202;-77
2022/03/20 12:45:23;;;;;;;15.23;9.27;;;20.60;16.70;;;;;;5098390;28;20095;-77
2022/03/20 12:47:54;;;;;;;16.10;9.18;;;20.00;17.20;;;;;;5100269;28;20043;-77
2022/03/20 12:50:23;;;;;;;15.98;8.85;;;19.60;17.70;;;;;;5100389;28;20430;-78
2022/03/20 12:52:54;;;;;;;14.85;8.95;;;19.20;18.40;;;;;;5099477;28;20020;-75
2022/03/20 12:55:25;;;;;;;16.33;10.00;;;19.40;18.20;;;;;;5098659;28;20024;-78
2022/03/20 12:57:51;;;;;;;14.45;9.70;;;19.50;17.60;;;;;;5099403;28;20031;-78
2022/03/20 13:00:32;;;;;;;20.70;9.50;;;19.10;17.50;;;;;;5098664;28;20051;-78
2022/03/20 13:03:03;;;;;;;19.63;9.77;;;18.80;17.70;;;;;;5098726;28;20020;-77
2022/03/20 13:05:49;;;;;;;19.80;9.40;;;18.30;18.10;;;;;;5098451;28;20111;-79
2022/03/20 13:08:23;;;;;;;16.27;9.07;;;18.30;18.20;;;;;;5101004;28;20031;-79